createdAt,value
2022-09-01T00:01:09.112Z,0
2022-09-01T00:02:26.217Z,0
2022-09-01T00:03:43.321Z,0
2022-09-01T00:05:00.426Z,0
2022-09-01T00:06:17.530Z,0
2022-09-01T00:07:34.634Z,0
2022-09-01T00:08:51.738Z,0
2022-09-01T00:10:08.842Z,0
2022-09-01T00:11:25.946Z,0
2022-09-01T00:12:43.051Z,0
2022-09-01T00:14:00.155Z,0
2022-09-01T00:15:16.275Z,0
2022-09-01T00:16:33.379Z,0
2022-09-01T00:17:50.484Z,0
2022-09-01T00:19:07.588Z,0
2022-09-01T00:20:24.692Z,0
2022-09-01T00:21:41.796Z,0
2022-09-01T00:22:57.917Z,0
2022-09-01T00:24:15.021Z,0
2022-09-01T00:25:32.125Z,0
2022-09-01T00:26:49.227Z,0
2022-09-01T00:28:06.331Z,0
2022-09-01T00:29:23.436Z,0
2022-09-01T00:30:40.540Z,0
2022-09-01T00:31:57.644Z,0
2022-09-01T00:33:14.748Z,0
2022-09-01T00:34:31.852Z,0
2022-09-01T00:35:48.956Z,0
2022-09-01T00:37:06.060Z,0
2022-09-01T00:38:23.165Z,0
2022-09-01T00:39:39.285Z,0
2022-09-01T00:40:56.390Z,0
2022-09-01T00:42:13.494Z,0
2022-09-01T00:43:30.598Z,0
2022-09-01T00:44:47.702Z,0
2022-09-01T00:46:04.807Z,0
2022-09-01T00:47:21.911Z,0
2022-09-01T00:48:39.015Z,0
2022-09-01T00:49:56.119Z,0
2022-09-01T00:51:13.224Z,0
2022-09-01T00:52:30.328Z,0
2022-09-01T00:53:47.432Z,0
2022-09-01T00:55:04.537Z,0
2022-09-01T00:56:20.657Z,0
2022-09-01T00:57:37.762Z,0
2022-09-01T00:58:54.866Z,0
2022-09-01T01:00:11.971Z,0
2022-09-01T01:01:29.075Z,0
2022-09-01T01:02:46.180Z,0
2022-09-01T01:04:03.284Z,0
2022-09-01T01:05:20.388Z,0
2022-09-01T01:06:37.493Z,0
2022-09-01T01:07:54.597Z,0
2022-09-01T01:09:11.701Z,0
2022-09-01T01:10:28.806Z,0
2022-09-01T01:11:45.910Z,0
2022-09-01T01:13:02.030Z,0
2022-09-01T01:14:19.135Z,0
2022-09-01T01:15:36.239Z,0
2022-09-01T01:16:53.343Z,0
2022-09-01T01:18:10.447Z,0
2022-09-01T01:19:27.552Z,0
2022-09-01T01:20:44.656Z,0
2022-09-01T01:22:01.760Z,0
2022-09-01T01:23:18.865Z,0
2022-09-01T01:24:35.969Z,0
2022-09-01T01:25:53.074Z,0
2022-09-01T01:27:10.178Z,0
2022-09-01T01:28:27.282Z,0
2022-09-01T01:29:43.403Z,0
2022-09-01T01:31:00.507Z,0
2022-09-01T01:32:17.611Z,0
2022-09-01T01:33:34.716Z,0
2022-09-01T01:34:51.820Z,0
2022-09-01T01:36:08.925Z,0
2022-09-01T01:37:26.029Z,0
2022-09-01T01:38:43.133Z,0
2022-09-01T01:40:00.237Z,0
2022-09-01T01:41:17.342Z,0
2022-09-01T01:42:34.446Z,0
2022-09-01T01:43:51.550Z,0
2022-09-01T01:45:08.655Z,0
2022-09-01T01:46:24.775Z,0
2022-09-01T01:47:41.880Z,0
2022-09-01T01:48:58.985Z,0
2022-09-01T01:50:16.090Z,0
2022-09-01T01:51:33.194Z,0
2022-09-01T01:52:50.298Z,0
2022-09-01T01:54:07.403Z,0
2022-09-01T01:55:24.507Z,0
2022-09-01T01:56:41.612Z,0
2022-09-01T01:57:58.716Z,0
2022-09-01T01:59:15.820Z,0
2022-09-01T02:00:32.925Z,0
2022-09-01T02:01:50.029Z,0
2022-09-01T02:03:06.149Z,0
2022-09-01T02:04:23.254Z,0
2022-09-01T02:05:40.358Z,0
2022-09-01T02:06:57.462Z,0
2022-09-01T02:08:14.566Z,0
2022-09-01T02:09:31.671Z,0
2022-09-01T02:10:48.775Z,0
2022-09-01T02:12:05.880Z,0
2022-09-01T02:13:22.984Z,0
2022-09-01T02:14:40.088Z,0
2022-09-01T02:15:57.193Z,0
2022-09-01T02:17:14.297Z,0
2022-09-01T02:18:31.401Z,0
2022-09-01T02:19:47.522Z,0
2022-09-01T02:21:04.626Z,0
2022-09-01T02:22:21.730Z,0
2022-09-01T02:23:38.835Z,0
2022-09-01T02:24:55.939Z,0
2022-09-01T02:26:13.043Z,0
2022-09-01T02:27:30.148Z,0
2022-09-01T02:28:47.252Z,0
2022-09-01T02:30:04.356Z,0
2022-09-01T02:31:21.461Z,0
2022-09-01T02:32:38.565Z,0
2022-09-01T02:33:55.669Z,0
2022-09-01T02:35:12.773Z,0
2022-09-01T02:36:28.894Z,0
2022-09-01T02:37:45.998Z,0
2022-09-01T02:39:03.102Z,0
2022-09-01T02:40:20.207Z,0
2022-09-01T02:41:37.311Z,0
2022-09-01T02:42:54.415Z,0
2022-09-01T02:44:11.520Z,0
2022-09-01T02:45:28.624Z,0
2022-09-01T02:46:45.728Z,0
2022-09-01T02:48:02.832Z,0
2022-09-01T02:49:19.936Z,0
2022-09-01T02:50:37.041Z,0
2022-09-01T02:51:54.145Z,0
2022-09-01T02:53:10.265Z,0
2022-09-01T02:54:27.371Z,0
2022-09-01T02:55:44.475Z,0
2022-09-01T02:57:01.579Z,0
2022-09-01T02:58:18.684Z,0
2022-09-01T02:59:35.788Z,0
2022-09-01T03:00:52.892Z,0
2022-09-01T03:02:09.996Z,0
2022-09-01T03:03:27.101Z,0
2022-09-01T03:04:44.205Z,0
2022-09-01T03:06:01.309Z,0
2022-09-01T03:07:18.414Z,0
2022-09-01T03:08:35.518Z,0
2022-09-01T03:09:51.638Z,0
2022-09-01T03:11:08.743Z,0
2022-09-01T03:12:25.847Z,0
2022-09-01T03:13:42.951Z,0
2022-09-01T03:15:00.055Z,0
2022-09-01T03:16:17.160Z,0
2022-09-01T03:17:34.264Z,0
2022-09-01T03:18:51.368Z,0
2022-09-01T03:20:08.473Z,0
2022-09-01T03:21:25.577Z,0
2022-09-01T03:22:42.681Z,0
2022-09-01T03:23:59.785Z,0
2022-09-01T03:25:16.890Z,0
2022-09-01T03:26:33.010Z,0
2022-09-01T03:27:50.115Z,0
2022-09-01T03:29:07.220Z,0
2022-09-01T03:30:24.324Z,0
2022-09-01T03:31:41.428Z,0
2022-09-01T03:32:58.533Z,0
2022-09-01T03:34:15.637Z,0
2022-09-01T03:35:32.741Z,0
2022-09-01T03:36:49.846Z,0
2022-09-01T03:38:06.950Z,0
2022-09-01T03:39:24.054Z,0
2022-09-01T03:40:41.159Z,0
2022-09-01T03:41:58.263Z,0
2022-09-01T03:43:14.383Z,0
2022-09-01T03:44:31.488Z,0
2022-09-01T03:45:48.592Z,0
2022-09-01T03:47:05.696Z,0
2022-09-01T03:48:22.801Z,0
2022-09-01T03:49:39.905Z,0
2022-09-01T03:50:57.010Z,0
2022-09-01T03:52:14.114Z,0
2022-09-01T03:53:31.218Z,0
2022-09-01T03:54:48.322Z,0
2022-09-01T03:56:05.425Z,0
2022-09-01T03:57:22.529Z,0
2022-09-01T03:58:39.633Z,0
2022-09-01T03:59:55.754Z,0
2022-09-01T04:01:12.859Z,0
2022-09-01T04:02:29.963Z,0
2022-09-01T04:03:47.067Z,0
2022-09-01T04:05:04.171Z,0
2022-09-01T04:06:21.276Z,0
2022-09-01T04:07:38.380Z,0
2022-09-01T04:08:55.484Z,0
2022-09-01T04:10:12.590Z,0
2022-09-01T04:11:29.694Z,0
2022-09-01T04:12:46.799Z,0
2022-09-01T04:14:03.903Z,0
2022-09-01T04:15:21.007Z,0
2022-09-01T04:16:37.128Z,0
2022-09-01T04:17:54.232Z,0
2022-09-01T04:19:11.335Z,0
2022-09-01T04:20:28.439Z,0
2022-09-01T04:21:45.543Z,0
2022-09-01T04:23:02.648Z,5
2022-09-01T04:24:19.752Z,5
2022-09-01T04:25:36.858Z,5
2022-09-01T04:26:53.962Z,5
2022-09-01T04:28:11.066Z,5
2022-09-01T04:29:28.171Z,11
2022-09-01T04:30:45.275Z,11
2022-09-01T04:32:02.380Z,11
2022-09-01T04:33:18.500Z,16
2022-09-01T04:34:35.605Z,16
2022-09-01T04:35:52.709Z,16
2022-09-01T04:37:09.814Z,22
2022-09-01T04:38:26.918Z,22
2022-09-01T04:39:44.022Z,28
2022-09-01T04:41:00.143Z,33
2022-09-01T04:42:17.247Z,33
2022-09-01T04:43:34.352Z,39
2022-09-01T04:44:51.456Z,45
2022-09-01T04:46:08.561Z,50
2022-09-01T04:47:25.665Z,50
2022-09-01T04:48:42.769Z,56
2022-09-01T04:49:59.874Z,61
2022-09-01T04:51:16.978Z,67
2022-09-01T04:52:34.083Z,73
2022-09-01T04:53:51.187Z,78
2022-09-01T04:55:08.291Z,84
2022-09-01T04:56:25.396Z,90
2022-09-01T04:57:41.517Z,95
2022-09-01T04:58:58.621Z,101
2022-09-01T05:00:15.725Z,106
2022-09-01T05:01:32.830Z,112
2022-09-01T05:02:49.934Z,118
2022-09-01T05:04:07.039Z,123
2022-09-01T05:05:24.143Z,129
2022-09-01T05:06:41.247Z,135
2022-09-01T05:07:58.352Z,140
2022-09-01T05:09:15.457Z,146
2022-09-01T05:10:32.561Z,151
2022-09-01T05:11:49.665Z,157
2022-09-01T05:13:06.770Z,163
2022-09-01T05:14:22.890Z,168
2022-09-01T05:15:39.995Z,174
2022-09-01T05:16:57.099Z,180
2022-09-01T05:18:14.204Z,191
2022-09-01T05:19:31.308Z,196
2022-09-01T05:20:48.413Z,568
2022-09-01T05:22:05.517Z,1175
2022-09-01T05:23:22.621Z,652
2022-09-01T05:24:39.726Z,219
2022-09-01T05:25:56.830Z,225
2022-09-01T05:27:13.934Z,241
2022-09-01T05:28:31.039Z,393
2022-09-01T05:29:48.143Z,1141
2022-09-01T05:31:04.264Z,1507
2022-09-01T05:32:21.368Z,1642
2022-09-01T05:33:38.472Z,1788
2022-09-01T05:34:55.577Z,1726
2022-09-01T05:36:12.681Z,1636
2022-09-01T05:37:29.785Z,1777
2022-09-01T05:38:46.889Z,1873
2022-09-01T05:40:03.993Z,1794
2022-09-01T05:41:21.098Z,1878
2022-09-01T05:42:38.202Z,1850
2022-09-01T05:43:55.306Z,1957
2022-09-01T05:45:12.410Z,1935
2022-09-01T05:46:29.514Z,2002
2022-09-01T05:47:45.634Z,2041
2022-09-01T05:49:02.738Z,2250
2022-09-01T05:50:19.842Z,2188
2022-09-01T05:51:36.946Z,2283
2022-09-01T05:52:54.051Z,2081
2022-09-01T05:54:11.155Z,2233
2022-09-01T05:55:28.259Z,2295
2022-09-01T05:56:45.362Z,2205
2022-09-01T05:58:02.466Z,2081
2022-09-01T05:59:19.570Z,2199
2022-09-01T06:00:36.674Z,2266
2022-09-01T06:01:53.778Z,2221
2022-09-01T06:03:10.883Z,2486
2022-09-01T06:04:27.003Z,2565
2022-09-01T06:05:44.107Z,2345
2022-09-01T06:07:01.211Z,2323
2022-09-01T06:08:18.316Z,2311
2022-09-01T06:09:35.420Z,2261
2022-09-01T06:10:52.524Z,2272
2022-09-01T06:12:09.628Z,2362
2022-09-01T06:13:26.733Z,2458
2022-09-01T06:14:43.837Z,2491
2022-09-01T06:16:00.941Z,2430
2022-09-01T06:17:18.045Z,2396
2022-09-01T06:18:35.149Z,2413
2022-09-01T06:19:52.253Z,2446
2022-09-01T06:21:08.373Z,2221
2022-09-01T06:22:25.478Z,2283
2022-09-01T06:23:42.582Z,2058
2022-09-01T06:24:59.686Z,2205
2022-09-01T06:26:16.791Z,2120
2022-09-01T06:27:33.896Z,2070
2022-09-01T06:28:51.000Z,2176
2022-09-01T06:30:08.104Z,2401
2022-09-01T06:31:25.208Z,2565
2022-09-01T06:32:42.311Z,2525
2022-09-01T06:33:59.415Z,2424
2022-09-01T06:35:16.519Z,2317
2022-09-01T06:36:33.624Z,2356
2022-09-01T06:37:49.744Z,2435
2022-09-01T06:39:06.848Z,2261
2022-09-01T06:40:23.953Z,2289
2022-09-01T06:41:41.057Z,2424
2022-09-01T06:42:58.162Z,2626
2022-09-01T06:44:15.266Z,2711
2022-09-01T06:45:32.370Z,2705
2022-09-01T06:46:49.475Z,2840
2022-09-01T06:48:06.580Z,2373
2022-09-01T06:49:23.684Z,2306
2022-09-01T06:50:40.788Z,2182
2022-09-01T06:51:57.893Z,2289
2022-09-01T06:53:14.998Z,2272
2022-09-01T06:54:31.118Z,2480
2022-09-01T06:55:48.223Z,2323
2022-09-01T06:57:05.327Z,1873
2022-09-01T06:58:22.432Z,1209
2022-09-01T06:59:39.536Z,1147
2022-09-01T07:00:56.641Z,1130
2022-09-01T07:02:13.745Z,1130
2022-09-01T07:03:30.849Z,1130
2022-09-01T07:04:47.955Z,1119
2022-09-01T07:06:05.059Z,1125
2022-09-01T07:07:22.164Z,1153
2022-09-01T07:08:39.268Z,1175
2022-09-01T07:09:56.373Z,1192
2022-09-01T07:11:12.494Z,1158
2022-09-01T07:12:29.598Z,1119
2022-09-01T07:13:46.702Z,1096
2022-09-01T07:15:03.807Z,1091
2022-09-01T07:16:20.911Z,1074
2022-09-01T07:17:38.015Z,1074
2022-09-01T07:18:55.120Z,1085
2022-09-01T07:20:12.224Z,1085
2022-09-01T07:21:29.329Z,1068
2022-09-01T07:22:46.434Z,1063
2022-09-01T07:24:03.539Z,1051
2022-09-01T07:25:20.643Z,1051
2022-09-01T07:26:37.748Z,1063
2022-09-01T07:27:53.869Z,1063
2022-09-01T07:29:10.974Z,1068
2022-09-01T07:30:28.079Z,1057
2022-09-01T07:31:45.183Z,1046
2022-09-01T07:33:02.288Z,1046
2022-09-01T07:34:19.393Z,1051
2022-09-01T07:35:36.498Z,1074
2022-09-01T07:36:53.602Z,1063
2022-09-01T07:38:10.707Z,1040
2022-09-01T07:39:27.812Z,1029
2022-09-01T07:40:44.917Z,1029
2022-09-01T07:42:02.022Z,1035
2022-09-01T07:43:19.127Z,1035
2022-09-01T07:44:35.248Z,1040
2022-09-01T07:45:52.353Z,1046
2022-09-01T07:47:09.459Z,1051
2022-09-01T07:48:26.564Z,1051
2022-09-01T07:49:43.669Z,1051
2022-09-01T07:51:00.774Z,1051
2022-09-01T07:52:17.879Z,1068
2022-09-01T07:53:34.982Z,1068
2022-09-01T07:54:52.087Z,1074
2022-09-01T07:56:09.192Z,1074
2022-09-01T07:57:26.297Z,1074
2022-09-01T07:58:43.402Z,1209
2022-09-01T08:00:00.507Z,1215
2022-09-01T08:01:16.628Z,1147
2022-09-01T08:02:33.733Z,1068
2022-09-01T08:03:50.839Z,1035
2022-09-01T08:05:07.944Z,1023
2022-09-01T08:06:25.049Z,1012
2022-09-01T08:07:42.154Z,1001
2022-09-01T08:08:59.259Z,990
2022-09-01T08:10:16.364Z,990
2022-09-01T08:11:33.469Z,995
2022-09-01T08:12:50.574Z,990
2022-09-01T08:14:07.679Z,990
2022-09-01T08:15:24.784Z,990
2022-09-01T08:16:41.890Z,995
2022-09-01T08:17:58.010Z,1012
2022-09-01T08:19:15.115Z,1018
2022-09-01T08:20:32.220Z,1018
2022-09-01T08:21:49.325Z,1006
2022-09-01T08:23:06.429Z,990
2022-09-01T08:24:23.534Z,973
2022-09-01T08:25:40.639Z,967
2022-09-01T08:26:57.744Z,961
2022-09-01T08:28:14.849Z,956
2022-09-01T08:29:31.953Z,950
2022-09-01T08:30:49.058Z,945
2022-09-01T08:32:06.163Z,945
2022-09-01T08:33:23.268Z,945
2022-09-01T08:34:39.389Z,945
2022-09-01T08:35:56.494Z,939
2022-09-01T08:37:13.599Z,939
2022-09-01T08:38:30.703Z,945
2022-09-01T08:39:47.808Z,945
2022-09-01T08:41:04.913Z,939
2022-09-01T08:42:22.017Z,945
2022-09-01T08:43:39.122Z,945
2022-09-01T08:44:56.227Z,945
2022-09-01T08:46:13.331Z,945
2022-09-01T08:47:30.436Z,950
2022-09-01T08:48:47.541Z,950
2022-09-01T08:50:04.646Z,950
2022-09-01T08:51:20.766Z,956
2022-09-01T08:52:37.871Z,973
2022-09-01T08:53:54.976Z,984
2022-09-01T08:55:12.080Z,995
2022-09-01T08:56:29.185Z,990
2022-09-01T08:57:46.290Z,984
2022-09-01T08:59:02.410Z,1006
2022-09-01T09:00:19.515Z,1006
2022-09-01T09:01:36.619Z,1001
2022-09-01T09:02:53.724Z,984
2022-09-01T09:04:10.829Z,956
2022-09-01T09:05:27.933Z,945
2022-09-01T09:06:45.038Z,945
2022-09-01T09:08:02.143Z,950
2022-09-01T09:09:19.248Z,950
2022-09-01T09:10:36.353Z,956
2022-09-01T09:11:53.457Z,973
2022-09-01T09:13:10.562Z,1001
2022-09-01T09:14:27.666Z,1023
2022-09-01T09:15:43.787Z,1035
2022-09-01T09:17:00.891Z,1057
2022-09-01T09:18:17.996Z,1063
2022-09-01T09:19:35.101Z,1057
2022-09-01T09:20:52.205Z,1051
2022-09-01T09:22:09.310Z,1063
2022-09-01T09:23:26.414Z,956
2022-09-01T09:24:43.519Z,1063
2022-09-01T09:26:00.624Z,1085
2022-09-01T09:27:17.729Z,1080
2022-09-01T09:28:34.834Z,1091
2022-09-01T09:29:51.938Z,1091
2022-09-01T09:31:09.042Z,1080
2022-09-01T09:32:25.163Z,1068
2022-09-01T09:33:42.267Z,1063
2022-09-01T09:34:59.372Z,1074
2022-09-01T09:36:16.477Z,1080
2022-09-01T09:37:33.581Z,1063
2022-09-01T09:38:50.685Z,1051
2022-09-01T09:40:07.790Z,500
2022-09-01T09:41:24.894Z,478
2022-09-01T09:42:41.998Z,573
2022-09-01T09:43:59.103Z,1113
2022-09-01T09:45:16.207Z,1136
2022-09-01T09:46:33.312Z,579
2022-09-01T09:47:50.416Z,1006
2022-09-01T09:49:06.537Z,787
2022-09-01T09:50:23.641Z,1068
2022-09-01T09:51:40.746Z,545
2022-09-01T09:52:57.850Z,506
2022-09-01T09:54:14.955Z,483
2022-09-01T09:55:32.059Z,1029
2022-09-01T09:56:49.163Z,1040
2022-09-01T09:58:06.268Z,1276
2022-09-01T09:59:23.372Z,438
2022-09-01T10:00:40.476Z,438
2022-09-01T10:01:57.580Z,461
2022-09-01T10:03:14.684Z,607
2022-09-01T10:04:31.788Z,1518
2022-09-01T10:05:47.908Z,1468
2022-09-01T10:07:05.012Z,1451
2022-09-01T10:08:22.116Z,1434
2022-09-01T10:09:39.220Z,1496
2022-09-01T10:10:56.324Z,1462
2022-09-01T10:12:13.428Z,421
2022-09-01T10:13:30.532Z,433
2022-09-01T10:14:47.637Z,489
2022-09-01T10:16:04.742Z,1147
2022-09-01T10:17:21.846Z,489
2022-09-01T10:18:38.950Z,472
2022-09-01T10:19:56.055Z,1080
2022-09-01T10:21:13.160Z,1091
2022-09-01T10:22:29.281Z,1085
2022-09-01T10:23:46.385Z,478
2022-09-01T10:25:03.489Z,483
2022-09-01T10:26:20.593Z,506
2022-09-01T10:27:37.697Z,798
2022-09-01T10:28:54.801Z,1012
2022-09-01T10:30:11.905Z,1361
2022-09-01T10:31:29.010Z,495
2022-09-01T10:32:46.114Z,489
2022-09-01T10:34:03.218Z,624
2022-09-01T10:35:20.322Z,821
2022-09-01T10:36:37.426Z,770
2022-09-01T10:37:54.530Z,725
2022-09-01T10:39:10.650Z,675
2022-09-01T10:40:27.754Z,635
2022-09-01T10:41:44.858Z,596
2022-09-01T10:43:01.962Z,579
2022-09-01T10:44:19.066Z,579
2022-09-01T10:45:36.170Z,438
2022-09-01T10:46:53.274Z,455
2022-09-01T10:48:10.378Z,579
2022-09-01T10:49:27.482Z,607
2022-09-01T10:50:44.587Z,618
2022-09-01T10:52:01.691Z,618
2022-09-01T10:53:18.793Z,630
2022-09-01T10:54:35.898Z,624
2022-09-01T10:55:52.018Z,618
2022-09-01T10:57:09.122Z,601
2022-09-01T10:58:26.226Z,590
2022-09-01T10:59:43.330Z,601
2022-09-01T11:01:00.435Z,500
2022-09-01T11:02:17.539Z,523
2022-09-01T11:03:34.643Z,618
2022-09-01T11:04:51.747Z,562
2022-09-01T11:06:08.851Z,568
2022-09-01T11:07:25.955Z,500
2022-09-01T11:08:43.059Z,472
2022-09-01T11:10:00.164Z,455
2022-09-01T11:11:17.268Z,455
2022-09-01T11:12:33.388Z,427
2022-09-01T11:13:50.492Z,455
2022-09-01T11:15:07.596Z,472
2022-09-01T11:16:24.700Z,405
2022-09-01T11:17:41.804Z,427
2022-09-01T11:18:58.908Z,438
2022-09-01T11:20:16.012Z,444
2022-09-01T11:21:33.116Z,450
2022-09-01T11:22:50.221Z,461
2022-09-01T11:24:07.325Z,466
2022-09-01T11:25:24.429Z,466
2022-09-01T11:26:41.533Z,483
2022-09-01T11:27:58.637Z,523
2022-09-01T11:29:14.757Z,641
2022-09-01T11:30:31.861Z,646
2022-09-01T11:31:48.965Z,630
2022-09-01T11:33:06.069Z,500
2022-09-01T11:34:23.173Z,455
2022-09-01T11:35:40.277Z,427
2022-09-01T11:36:57.381Z,405
2022-09-01T11:38:14.485Z,410
2022-09-01T11:39:31.589Z,416
2022-09-01T11:40:48.693Z,433
2022-09-01T11:42:05.797Z,433
2022-09-01T11:43:22.901Z,438
2022-09-01T11:44:40.005Z,444
2022-09-01T11:45:56.125Z,450
2022-09-01T11:47:13.229Z,455
2022-09-01T11:48:30.333Z,517
2022-09-01T11:49:47.437Z,461
2022-09-01T11:51:04.541Z,461
2022-09-01T11:52:21.645Z,556
2022-09-01T11:53:38.749Z,562
2022-09-01T11:54:55.852Z,556
2022-09-01T11:56:12.956Z,562
2022-09-01T11:57:30.060Z,562
2022-09-01T11:58:47.164Z,556
2022-09-01T12:00:04.268Z,551
2022-09-01T12:01:21.372Z,585
2022-09-01T12:02:37.492Z,585
2022-09-01T12:03:54.596Z,568
2022-09-01T12:05:11.700Z,534
2022-09-01T12:06:28.804Z,433
2022-09-01T12:07:45.907Z,421
2022-09-01T12:09:03.011Z,410
2022-09-01T12:10:20.115Z,405
2022-09-01T12:11:37.220Z,416
2022-09-01T12:12:54.324Z,433
2022-09-01T12:14:11.428Z,438
2022-09-01T12:15:28.532Z,450
2022-09-01T12:16:45.636Z,551
2022-09-01T12:18:02.740Z,556
2022-09-01T12:19:18.860Z,556
2022-09-01T12:20:35.964Z,568
2022-09-01T12:21:53.068Z,573
2022-09-01T12:23:10.173Z,585
2022-09-01T12:24:27.277Z,523
2022-09-01T12:25:44.380Z,523
2022-09-01T12:27:01.484Z,523
2022-09-01T12:28:18.588Z,528
2022-09-01T12:29:35.692Z,534
2022-09-01T12:30:52.794Z,534
2022-09-01T12:32:09.898Z,523
2022-09-01T12:33:27.002Z,511
2022-09-01T12:34:44.106Z,500
2022-09-01T12:36:00.226Z,483
2022-09-01T12:37:17.330Z,472
2022-09-01T12:38:34.433Z,461
2022-09-01T12:39:51.537Z,450
2022-09-01T12:41:08.641Z,461
2022-09-01T12:42:25.745Z,444
2022-09-01T12:43:42.848Z,528
2022-09-01T12:44:59.953Z,478
2022-09-01T12:46:17.056Z,551
2022-09-01T12:47:34.160Z,562
2022-09-01T12:48:51.264Z,506
2022-09-01T12:50:08.368Z,573
2022-09-01T12:51:25.472Z,601
2022-09-01T12:52:41.592Z,601
2022-09-01T12:53:58.695Z,601
2022-09-01T12:55:15.799Z,601
2022-09-01T12:56:32.903Z,596
2022-09-01T12:57:50.007Z,585
2022-09-01T12:59:07.111Z,590
2022-09-01T13:00:24.215Z,607
2022-09-01T13:01:41.319Z,613
2022-09-01T13:02:58.423Z,613
2022-09-01T13:04:15.527Z,607
2022-09-01T13:05:32.630Z,601
2022-09-01T13:06:49.735Z,607
2022-09-01T13:08:06.839Z,601
2022-09-01T13:09:22.959Z,596
2022-09-01T13:10:40.063Z,590
2022-09-01T13:11:57.167Z,590
2022-09-01T13:13:14.271Z,590
2022-09-01T13:14:31.375Z,590
2022-09-01T13:15:48.479Z,590
2022-09-01T13:17:04.600Z,590
2022-09-01T13:18:21.704Z,590
2022-09-01T13:19:38.808Z,585
2022-09-01T13:20:55.912Z,590
2022-09-01T13:22:13.016Z,601
2022-09-01T13:23:30.120Z,596
2022-09-01T13:24:47.225Z,573
2022-09-01T13:26:04.329Z,551
2022-09-01T13:27:21.433Z,573
2022-09-01T13:28:38.537Z,540
2022-09-01T13:29:55.641Z,523
2022-09-01T13:31:12.746Z,585
2022-09-01T13:32:29.850Z,495
2022-09-01T13:33:45.970Z,483
2022-09-01T13:35:03.074Z,483
2022-09-01T13:36:20.178Z,489
2022-09-01T13:37:37.282Z,495
2022-09-01T13:38:54.386Z,573
2022-09-01T13:40:11.491Z,579
2022-09-01T13:41:28.595Z,551
2022-09-01T13:42:45.699Z,495
2022-09-01T13:44:02.803Z,511
2022-09-01T13:45:19.907Z,585
2022-09-01T13:46:37.011Z,573
2022-09-01T13:47:54.115Z,573
2022-09-01T13:49:11.219Z,579
2022-09-01T13:50:27.339Z,579
2022-09-01T13:51:44.444Z,568
2022-09-01T13:53:01.548Z,556
2022-09-01T13:54:18.652Z,551
2022-09-01T13:55:35.756Z,568
2022-09-01T13:56:52.860Z,573
2022-09-01T13:58:09.965Z,579
2022-09-01T13:59:27.069Z,573
2022-09-01T14:00:44.173Z,568
2022-09-01T14:02:01.277Z,556
2022-09-01T14:03:18.381Z,545
2022-09-01T14:04:35.486Z,540
2022-09-01T14:05:52.590Z,523
2022-09-01T14:07:08.710Z,528
2022-09-01T14:08:25.814Z,523
2022-09-01T14:09:42.918Z,517
2022-09-01T14:11:00.022Z,528
2022-09-01T14:12:17.126Z,506
2022-09-01T14:13:34.231Z,455
2022-09-01T14:14:51.335Z,495
2022-09-01T14:16:08.439Z,500
2022-09-01T14:17:25.543Z,483
2022-09-01T14:18:42.647Z,478
2022-09-01T14:19:59.751Z,483
2022-09-01T14:21:16.855Z,478
2022-09-01T14:22:33.959Z,427
2022-09-01T14:23:50.079Z,405
2022-09-01T14:25:07.183Z,393
2022-09-01T14:26:24.288Z,405
2022-09-01T14:27:41.392Z,450
2022-09-01T14:28:58.496Z,382
2022-09-01T14:30:15.600Z,371
2022-09-01T14:31:32.703Z,399
2022-09-01T14:32:49.807Z,421
2022-09-01T14:34:06.911Z,416
2022-09-01T14:35:24.015Z,410
2022-09-01T14:36:41.119Z,410
2022-09-01T14:37:58.223Z,405
2022-09-01T14:39:15.327Z,410
2022-09-01T14:40:31.447Z,416
2022-09-01T14:41:48.551Z,421
2022-09-01T14:43:05.655Z,421
2022-09-01T14:44:22.759Z,427
2022-09-01T14:45:39.863Z,438
2022-09-01T14:46:56.967Z,427
2022-09-01T14:48:14.071Z,450
2022-09-01T14:49:31.174Z,461
2022-09-01T14:50:48.278Z,466
2022-09-01T14:52:05.382Z,466
2022-09-01T14:53:22.486Z,461
2022-09-01T14:54:39.590Z,466
2022-09-01T14:55:56.693Z,421
2022-09-01T14:57:12.813Z,416
2022-09-01T14:58:29.917Z,416
2022-09-01T14:59:47.022Z,450
2022-09-01T15:01:04.126Z,466
2022-09-01T15:02:21.230Z,461
2022-09-01T15:03:38.334Z,455
2022-09-01T15:04:55.438Z,438
2022-09-01T15:06:12.542Z,433
2022-09-01T15:07:29.646Z,421
2022-09-01T15:08:46.750Z,410
2022-09-01T15:10:03.854Z,405
2022-09-01T15:11:20.958Z,393
2022-09-01T15:12:38.062Z,393
2022-09-01T15:13:54.182Z,399
2022-09-01T15:15:11.286Z,399
2022-09-01T15:16:28.390Z,393
2022-09-01T15:17:45.494Z,388
2022-09-01T15:19:02.598Z,382
2022-09-01T15:20:19.702Z,382
2022-09-01T15:21:36.807Z,376
2022-09-01T15:22:53.911Z,376
2022-09-01T15:24:11.015Z,382
2022-09-01T15:25:28.119Z,388
2022-09-01T15:26:45.223Z,393
2022-09-01T15:28:02.327Z,393
2022-09-01T15:29:19.431Z,399
2022-09-01T15:30:35.551Z,405
2022-09-01T15:31:52.655Z,405
2022-09-01T15:33:09.760Z,410
2022-09-01T15:34:26.864Z,405
2022-09-01T15:35:43.968Z,399
2022-09-01T15:37:01.072Z,399
2022-09-01T15:38:18.176Z,388
2022-09-01T15:39:35.280Z,382
2022-09-01T15:40:52.384Z,382
2022-09-01T15:42:09.488Z,382
2022-09-01T15:43:26.592Z,382
2022-09-01T15:44:43.696Z,382
2022-09-01T15:46:00.800Z,376
2022-09-01T15:47:16.921Z,371
2022-09-01T15:48:34.025Z,365
2022-09-01T15:49:51.129Z,365
2022-09-01T15:51:08.233Z,365
2022-09-01T15:52:25.337Z,360
2022-09-01T15:53:42.440Z,354
2022-09-01T15:54:59.545Z,354
2022-09-01T15:56:16.649Z,348
2022-09-01T15:57:33.753Z,354
2022-09-01T15:58:50.857Z,348
2022-09-01T16:00:07.961Z,348
2022-09-01T16:01:25.065Z,337
2022-09-01T16:02:42.169Z,331
2022-09-01T16:03:58.289Z,326
2022-09-01T16:05:15.393Z,315
2022-09-01T16:06:32.498Z,309
2022-09-01T16:07:49.602Z,298
2022-09-01T16:09:06.706Z,292
2022-09-01T16:10:23.810Z,281
2022-09-01T16:11:40.914Z,270
2022-09-01T16:12:58.018Z,264
2022-09-01T16:14:15.122Z,258
2022-09-01T16:15:32.227Z,258
2022-09-01T16:16:49.332Z,253
2022-09-01T16:18:06.436Z,253
2022-09-01T16:19:23.540Z,247
2022-09-01T16:20:39.660Z,247
2022-09-01T16:21:56.764Z,247
2022-09-01T16:23:13.868Z,241
2022-09-01T16:24:30.972Z,241
2022-09-01T16:25:48.076Z,241
2022-09-01T16:27:05.179Z,241
2022-09-01T16:28:22.285Z,241
2022-09-01T16:29:39.390Z,236
2022-09-01T16:30:56.494Z,236
2022-09-01T16:32:13.597Z,236
2022-09-01T16:33:30.701Z,236
2022-09-01T16:34:47.805Z,230
2022-09-01T16:36:04.909Z,230
2022-09-01T16:37:21.029Z,230
2022-09-01T16:38:38.132Z,225
2022-09-01T16:39:55.236Z,225
2022-09-01T16:41:12.340Z,225
2022-09-01T16:42:29.444Z,225
2022-09-01T16:43:46.548Z,225
2022-09-01T16:45:03.652Z,219
2022-09-01T16:46:20.755Z,219
2022-09-01T16:47:37.859Z,219
2022-09-01T16:48:54.963Z,213
2022-09-01T16:50:12.067Z,213
2022-09-01T16:51:29.171Z,213
2022-09-01T16:52:46.274Z,213
2022-09-01T16:54:02.394Z,213
2022-09-01T16:55:19.498Z,208
2022-09-01T16:56:36.602Z,208
2022-09-01T16:57:53.706Z,213
2022-09-01T16:59:10.810Z,208
2022-09-01T17:00:27.914Z,208
2022-09-01T17:01:45.018Z,208
2022-09-01T17:03:02.122Z,213
2022-09-01T17:04:19.225Z,213
2022-09-01T17:05:36.329Z,208
2022-09-01T17:06:53.433Z,202
2022-09-01T17:08:10.537Z,196
2022-09-01T17:09:27.641Z,185
2022-09-01T17:10:43.761Z,185
2022-09-01T17:12:00.865Z,174
2022-09-01T17:13:17.969Z,168
2022-09-01T17:14:35.073Z,163
2022-09-01T17:15:52.177Z,157
2022-09-01T17:17:09.281Z,151
2022-09-01T17:18:26.385Z,151
2022-09-01T17:19:43.490Z,146
2022-09-01T17:21:00.594Z,140
2022-09-01T17:22:17.698Z,140
2022-09-01T17:23:34.802Z,135
2022-09-01T17:24:51.906Z,129
2022-09-01T17:26:09.011Z,129
2022-09-01T17:27:25.131Z,123
2022-09-01T17:28:42.235Z,118
2022-09-01T17:29:59.339Z,118
2022-09-01T17:31:16.443Z,112
2022-09-01T17:32:33.548Z,112
2022-09-01T17:33:50.652Z,106
2022-09-01T17:35:06.772Z,101
2022-09-01T17:36:23.876Z,101
2022-09-01T17:37:40.981Z,95
2022-09-01T17:38:58.084Z,95
2022-09-01T17:40:15.189Z,90
2022-09-01T17:41:32.293Z,90
2022-09-01T17:42:49.397Z,84
2022-09-01T17:44:06.501Z,84
2022-09-01T17:45:23.605Z,78
2022-09-01T17:46:40.709Z,73
2022-09-01T17:47:57.814Z,73
2022-09-01T17:49:14.918Z,67
2022-09-01T17:50:32.022Z,67
2022-09-01T17:51:48.142Z,61
2022-09-01T17:53:05.246Z,61